New London, Wisconsin
Current Conditions -  °F | °C
As of 4:55 AM on Monday 20 Oct 2014 (Local Time) from KPCZ Reporting Station
Clear Clear  
Wind Chill: 40°   Ceiling: Unl
Heat Index: 40°   Visibility: 10mi
Dew Point: 39°   Wind: 3mph
Humidity: 96%   Direction: 330°NNW
Pressure: 29.78"   Gusts: NA
Location:  44.39°N, 88.74°W
Report Text: KPCZ 200955Z AUTO 33003KT 10SM CLR 05/04 A2978 RMK AO2 T00450039
Loading
Personal Weather Stations






























Interactive Weather Map New forecast layout! Learn more

10-Day Weather Forecast

Advertisements
Track Severe Weather on mobile